CPY2 weather

Milton (District Hospital) Heliport
Milton, Ontario, Canada

Public forecast

Using degrees Celsius for public forecast. Weather courtesy of forecast.io.

Closest aviation weather report (METAR) to Milton (District Hospital) Heliport

Closest report is Lester B. Pearson International Airport, 15.1 nm (27.9 km) NE. Retrieved 2019/11/14 21:00 UTC (4 minutes ago):

CYYZ 142100Z 25004KT 210V280 12SM OVC030 00/M04 A3014 RMK SC8 SLP214

Closest aviation forecast (TAF) to Milton (District Hospital) Heliport

Closest forecast is Lester B. Pearson International Airport, 15.1 nm (27.9 km) NE. Retrieved 2019/11/14 21:40 UTC (0 seconds ago):

TAF CYYZ 142038Z 1421/1524 24010KT P6SM FEW020 OVC030 FM150200 24010KT P6SM FEW020 SCT040 TEMPO 1506/1508 BKN020 FM150800 24012KT P6SM OVC020 BECMG 1514/1516 26015G25KT FM151800 27015G25KT P6SM BKN025 FM152100 30015G25KT P6SM -SHSNRA OVC025 RMK NXT FCST BY 150000Z